• Join FlightAware (Why Join?)
  • Login
  • US Flag 
04:32PM EDT


 

Airport Tracker/Info


-or-


 

Live Flight TrackerFlight Track Log ✈ ASA630 ✈ 26-Apr-2013 ✈ KSEA - KPHX

Flight Track Log - Related Links

Times and Time Zones

All times are in EDT time to prevent confusion due to time zone crossing. See the ASA630 flight status page for this flight to view local times or setup timezone preferences in your user account.

Time Position Orientation Groundspeed Altitude Reporting Facility
EDT Latitude Longitude Course Direction KTS MPH feet Rate Location/Type
10:28PM 47.4258 -122.3089 180° South 169 194 1,500  Level Seattle Center
10:29PM 47.3972 -122.3089 180° South 176 203 2,400 1,680 Climbing Seattle Center
10:30PM 47.3381 -122.3092 180° South 211 243 4,500 2,280 Climbing Seattle Center
10:31PM 47.2647 -122.3100 180° South 261 300 7,100 2,520 Climbing Seattle Center
10:32PM 47.1933 -122.2753 162° South 285 328 9,700 2,160 Climbing Seattle Center
10:33PM 47.1058 -122.1856 145° Southeast 332 382 11,600 1,980 Climbing Seattle Center
10:34PM 47.0119 -122.1447 163° South 357 411 13,800 2,280 Climbing Seattle Center
10:35PM 46.9111 -122.1033 164° South 378 435 16,300 2,220 Climbing Seattle Center
10:36PM 46.8072 -122.0581 163° South 392 451 18,300 1,980 Climbing Seattle Center
10:37PM 46.6975 -122.0192 166° South 405 466 20,400 2,100 Climbing Seattle Center
10:38PM 46.5867 -121.9642 161° South 420 483 22,600 1,860 Climbing Seattle Center
10:39PM 46.4853 -121.8558 144° Southeast 449 517 24,300 1,560 Climbing Seattle Center
10:40PM 46.3808 -121.7506 145° Southeast 458 527 25,800 1,440 Climbing Seattle Center
10:41PM 46.2725 -121.6433 146° Southeast 473 544 27,300 1,380 Climbing Seattle Center
10:42PM 46.1517 -121.5258 146° Southeast 473 544 28,600 1,260 Climbing Seattle Center
10:43PM 46.0400 -121.4164 146° Southeast 479 551 29,900 1,320 Climbing Seattle Center
10:44PM 45.9203 -121.3069 148° Southeast 499 574 31,400 1,320 Climbing Seattle Center
10:45PM 45.8019 -121.2053 149° Southeast 498 573 32,700 1,140 Climbing Seattle Center
10:46PM 45.6889 -121.1089 149° Southeast 479 551 33,800 1,140 Climbing Seattle Center
10:47PM 45.5717 -121.0075 149° Southeast 488 562 35,000 1,080 Climbing Seattle Center
10:48PM 45.4550 -120.9092 149° Southeast 488 562 36,100 960 Climbing Seattle Center
10:49PM 45.3258 -120.7983 149° Southeast 488 562 37,000 420 Climbing Seattle Center
10:50PM 45.2094 -120.6997 149° Southeast 488 562 37,000  Level Seattle Center
10:51PM 45.0911 -120.6000 149° Southeast 492 566 37,000  Level Seattle Center
10:52PM 44.9719 -120.5006 149° Southeast 494 568 37,000  Level Seattle Center
10:53PM 44.8533 -120.4017 149° Southeast 493 567 37,000  Level Seattle Center
10:54PM 44.7339 -120.3036 150° Southeast 494 568 37,000  Level Seattle Center
10:55PM 44.6156 -120.2075 150° Southeast 490 564 37,000  Level Seattle Center
10:56PM 44.4994 -120.1108 149° Southeast 484 557 37,000  Level Seattle Center
10:57PM 44.3819 -120.0147 150° Southeast 486 559 37,000  Level Seattle Center
10:58PM 44.2642 -119.9208 150° Southeast 486 559 37,000  Level Seattle Center
10:59PM 44.1481 -119.8269 150° Southeast 483 556 37,000  Level Seattle Center
11:00PM 44.0194 -119.7253 150° Southeast 485 558 37,000  Level Seattle Center
11:01PM 43.9003 -119.6300 150° Southeast 480 552 37,000  Level Seattle Center
11:02PM 43.7894 -119.5397 150° Southeast 482 555 37,000  Level Seattle Center
11:03PM 43.6797 -119.4539 150° Southeast 477 549 37,000  Level Seattle Center
11:04PM 43.5636 -119.3489 147° Southeast 475 547 37,000  Level Seattle Center
11:05PM 43.4603 -119.2239 139° Southeast 487 560 37,000  Level Seattle Center
11:06PM 43.3625 -119.1086 139° Southeast 485 558 37,000  Level Seattle Center
11:07PM 43.2475 -118.9753 140° Southeast 485 558 37,000  Level Seattle Center
11:08PM 43.1492 -118.8619 140° Southeast 485 558 37,000  Level Seattle Center
11:09PM 43.0706 -118.7686 139° Southeast 479 551 37,000  Level Salt Lake Center
11:10PM 42.9569 -118.6378 140° Southeast 479 551 37,000  Level Salt Lake Center
11:11PM 42.8586 -118.5231 139° Southeast 485 558 37,000  Level Salt Lake Center
11:12PM 42.7444 -118.3939 140° Southeast 481 554 37,000  Level Salt Lake Center
11:13PM 42.6483 -118.2872 141° Southeast 470 541 37,000  Level Salt Lake Center
11:14PM 42.5503 -118.1753 140° Southeast 478 550 37,000  Level Salt Lake Center
11:15PM 42.4347 -118.0419 140° Southeast 485 558 37,000  Level Salt Lake Center
11:16PM 42.3364 -117.9331 141° Southeast 481 554 37,000  Level Salt Lake Center
11:17PM 42.2222 -117.8056 140° Southeast 477 549 37,000  Level Salt Lake Center
11:19PM 42.1289 -117.7047 141° Southeast 469 540 37,000  Level Salt Lake Center
11:20PM 42.0144 -117.5764 140° Southeast 475 547 37,000  Level Salt Lake Center
11:21PM 41.9158 -117.4653 140° Southeast 482 555 37,000  Level Salt Lake Center
11:22PM 41.8172 -117.3586 141° Southeast 477 549 37,000  Level Salt Lake Center
11:23PM 41.7019 -117.2344 141° Southeast 477 549 37,000  Level Salt Lake Center
11:24PM 41.6047 -117.1289 141° Southeast 471 542 37,000  Level Salt Lake Center
11:25PM 41.4903 -117.0042 141° Southeast 473 544 37,000  Level Salt Lake Center
11:26PM 41.3911 -116.8986 141° Southeast 474 545 37,000  Level Salt Lake Center
11:27PM 41.2936 -116.7922 141° Southeast 472 543 37,000  Level Salt Lake Center
11:28PM 41.1789 -116.6697 141° Southeast 471 542 37,000  Level Salt Lake Center
11:29PM 41.0811 -116.5647 141° Southeast 470 541 37,000  Level Salt Lake Center
11:30PM 40.9658 -116.4419 141° Southeast 472 543 37,000  Level Salt Lake Center
11:31PM 40.8642 -116.3361 142° Southeast 479 551 37,000  Level Salt Lake Center
11:32PM 40.7642 -116.2314 142° Southeast 476 548 37,000  Level Salt Lake Center
11:33PM 40.6469 -116.1075 141° Southeast 479 551 37,000  Level Salt Lake Center
11:34PM 40.5464 -116.0022 141° Southeast 479 551 37,000  Level Salt Lake Center
11:35PM 40.4436 -115.8978 142° Southeast 482 555 37,000  Level Salt Lake Center
11:36PM 40.3278 -115.7761 141° Southeast 477 549 37,000  Level Salt Lake Center
11:37PM 40.2286 -115.6736 142° Southeast 475 547 37,000  Level Salt Lake Center
11:38PM 40.1283 -115.5711 142° Southeast 475 547 37,000  Level Salt Lake Center
11:39PM 40.0133 -115.4542 142° Southeast 470 541 37,000  Level Salt Lake Center
11:40PM 39.9147 -115.3539 142° Southeast 469 540 37,000  Level Salt Lake Center
11:41PM 39.8008 -115.2381 142° Southeast 465 535 37,000  Level Salt Lake Center
11:42PM 39.7025 -115.1394 142° Southeast 465 535 37,000  Level Salt Lake Center
11:43PM 39.6050 -115.0397 142° Southeast 464 534 37,000  Level Salt Lake Center
11:44PM 39.4886 -114.9267 143° Southeast 468 539 37,000  Level Salt Lake Center
11:45PM 39.3881 -114.8286 143° Southeast 471 542 37,000  Level Salt Lake Center
11:46PM 39.2892 -114.7303 142° Southeast 469 540 37,000  Level Salt Lake Center
11:47PM 39.1903 -114.6322 142° Southeast 467 537 37,000  Level Salt Lake Center
11:48PM 39.0786 -114.5181 142° Southeast 467 537 37,000  Level Salt Lake Center
11:49PM 38.9742 -114.4178 143° Southeast 468 539 37,000  Level Salt Lake Center
11:50PM 38.8706 -114.3142 142° Southeast 471 542 37,000  Level Salt Lake Center
11:51PM 38.7658 -114.2128 143° Southeast 472 543 37,000  Level Salt Lake Center
11:52PM 38.6417 -114.0925 143° Southeast 468 539 37,000  Level Salt Lake Center
11:53PM 38.5389 -113.9947 143° Southeast 464 534 37,000  Level Salt Lake Center
11:54PM 38.4367 -113.8936 142° Southeast 465 535 37,000  Level Salt Lake Center
11:55PM 38.3331 -113.7961 144° Southeast 464 534 37,000  Level Salt Lake Center
11:56PM 38.2300 -113.6981 143° Southeast 464 534 37,000  Level Salt Lake Center
11:57PM 38.1281 -113.6014 143° Southeast 460 529 37,000  Level Salt Lake Center
11:58PM 38.0256 -113.5047 143° Southeast 460 529 37,000  Level Salt Lake Center
11:59PM 37.9239 -113.4089 143° Southeast 459 528 37,000  Level Salt Lake Center
12:00AM 37.8103 -113.3364 153° Southeast 458 527 37,000  Level Salt Lake Center
12:01AM 37.6708 -113.2597 156° South 459 528 37,000  Level Salt Lake Center
12:02AM 37.5547 -113.1956 156° South 462 532 37,000  Level Salt Lake Center
12:03AM 37.4389 -113.1311 156° South 461 531 37,000  Level Salt Lake Center
12:04AM 37.3217 -113.0669 156° South 465 535 37,000 -540 Level Salt Lake Center
12:06AM 37.2036 -113.0028 157° South 466 536 36,000 -960 Descending Salt Lake Center
12:07AM 37.0869 -112.9389 156° South 462 532 35,100 -1,080 Descending Salt Lake Center
12:07AM 37.0408 -112.9125 155° Southeast 458 527 34,700 -1,140 Descending Los Angeles Center
12:08AM 36.9208 -112.8464 156° South 468 539 33,700 -780 Descending Los Angeles Center
12:09AM 36.8003 -112.7822 157° South 471 542 33,000 -360 Descending Los Angeles Center
12:10AM 36.6578 -112.7056 157° South 468 539 33,000  Level Los Angeles Center
12:11AM 36.5364 -112.6422 157° South 471 542 33,000  Level Los Angeles Center
12:12AM 36.4147 -112.5789 157° South 473 544 33,000  Level Los Angeles Center
12:13AM 36.2942 -112.5147 157° South 473 544 33,000 -300 Level Los Angeles Center
12:14AM 36.1450 -112.4542 162° South 471 542 32,400 -780 Descending Los Angeles Center
12:15AM 36.0100 -112.4614 182° South 480 552 31,500 -960 Descending Los Angeles Center
12:16AM 35.8767 -112.4561 178° South 478 550 30,500 -1,020 Descending Los Angeles Center
12:17AM 35.7467 -112.4514 178° South 470 541 29,500 -660 Descending Los Angeles Center
12:18AM 35.6225 -112.4464 178° South 462 532 29,200 -300 Descending Los Angeles Center
12:19AM 35.4942 -112.4436 179° South 460 529 29,000 -120 Descending Los Angeles Center
12:20AM 35.3678 -112.4328 176° South 455 524 29,000  Level Los Angeles Center
12:21AM 35.3181 -112.4208 169° South 454 522 29,000 -540 Level Albuquerque Center
12:22AM 35.1931 -112.3925 170° South 455 524 28,300 -900 Descending Albuquerque Center
12:23AM 35.0722 -112.3650 169° South 445 512 27,300 -1,020 Descending Albuquerque Center
12:24AM 34.9519 -112.3372 169° South 441 507 26,300 -1,020 Descending Albuquerque Center
12:25AM 34.8336 -112.3100 169° South 436 502 25,300 -1,020 Descending Albuquerque Center
12:26AM 34.7222 -112.2842 169° South 428 493 24,300 -1,020 Descending Albuquerque Center
12:27AM 34.6094 -112.2575 169° South 419 482 23,300 -1,080 Descending Albuquerque Center
12:28AM 34.4986 -112.2322 169° South 411 473 22,200 -1,560 Descending Albuquerque Center
12:29AM 34.3903 -112.2058 169° South 403 464 20,200 -2,220 Descending Albuquerque Center
12:30AM 34.2675 -112.1783 170° South 383 441 17,800 -2,040 Descending Albuquerque Center
12:31AM 34.1689 -112.1536 168° South 367 422 16,100 -1,140 Descending Albuquerque Center
12:32AM 34.0789 -112.1347 170° South 331 381 15,600 -960 Descending Albuquerque Center
12:33AM 33.9972 -112.1142 168° South 307 353 14,200 -1,440 Descending Albuquerque Center
12:34AM 33.9131 -112.0917 167° South 312 359 12,700 -1,500 Descending Albuquerque Center
12:35AM 33.8294 -112.0708 168° South 311 358 11,200 -1,380 Descending Albuquerque Center
12:36AM 33.7447 -112.0503 169° South 304 350 10,000 -780 Descending Albuquerque Center
12:37AM 33.6694 -112.0372 172° South 287 330 9,700 -480 Descending Albuquerque Center
12:38AM 33.5958 -112.0247 172° South 271 312 9,100 -780 Descending Albuquerque Center
12:39AM 33.5375 -111.9883 153° Southeast 240 276 8,200 -1,080 Descending Albuquerque Center
12:40AM 33.5283 -111.9119 98° East 241 277 7,000 -1,080 Descending Albuquerque Center
12:41AM 33.5250 -111.8178 92° East 237 273 6,100 -1,140 Descending Albuquerque Center
12:42AM 33.4650 -111.8094 173° South 223 257 4,800 -1,260 Descending Albuquerque Center
12:43AM 33.4442 -111.8622 245° Southwest 183 211 3,600 -1,200 Descending Albuquerque Center
12:44AM 33.4408 -111.9119 265° West 153 176 2,400 -960 Descending Albuquerque Center
12:45AM 33.4414 -111.9600 271° West 145 167 1,700 -660 Descending Albuquerque Center
12:46AM 33.4394 -112.0111 267° West 149 171 1,100 -600 Descending Albuquerque Center